Time;durP1;ratioP1;P1;durP2;ratioP2;P2;SDS_P1;SDS_P2;PMS_P1;PMS_P2;Temp;Humidity;BMP_temperature;BMP_pressure;BME280_temperature;BME280_humidity;BME280_pressure;Samples;Min_cycle;Max_cycle;Signal;HPM_P1;HPM_P2
2022/03/30 00:00:45;;;;;;;21.10;6.03;;;;;;;4.98;96.20;91915.56;2105749;28;20384;-80
2022/03/30 00:01:48;;;;;;;26.23;6.75;;;;;;;4.91;96.86;91913.03;2097534;28;20551;-79
2022/03/30 00:02:49;;;;;;;21.17;7.07;;;;;;;4.94;96.26;91918.28;2089216;28;20551;-80
2022/03/30 00:03:50;;;;;;;31.45;6.35;;;;;;;5.03;96.47;91905.22;2097651;28;20028;-80
2022/03/30 00:04:51;;;;;;;31.13;7.50;;;;;;;4.89;95.46;91913.47;2097605;28;20073;-79
2022/03/30 00:05:52;;;;;;;31.80;7.38;;;;;;;4.86;97.60;91911.63;2087698;28;20123;-79
2022/03/30 00:06:53;;;;;;;27.75;6.22;;;;;;;5.00;96.75;91906.06;2095764;28;20093;-78
2022/03/30 00:07:54;;;;;;;27.25;6.78;;;;;;;4.90;96.39;91906.25;2087554;28;20017;-80
2022/03/30 00:08:55;;;;;;;30.27;7.20;;;;;;;5.01;96.47;91912.84;2100483;28;20030;-80
2022/03/30 00:09:56;;;;;;;24.35;6.63;;;;;;;4.86;97.25;91906.31;2101477;28;20072;-80
2022/03/30 00:10:58;;;;;;;25.00;6.95;;;;;;;4.85;96.47;91904.09;2105570;28;20048;-80
2022/03/30 00:11:59;;;;;;;28.75;7.63;;;;;;;4.84;96.49;91899.97;2105024;28;20517;-80
2022/03/30 00:13:01;;;;;;;27.10;7.05;;;;;;;4.85;97.37;91901.44;2097453;28;20533;-79
2022/03/30 00:14:02;;;;;;;29.40;6.53;;;;;;;4.89;96.72;91894.94;2105019;28;20024;-80
2022/03/30 00:15:04;;;;;;;27.23;6.68;;;;;;;4.84;98.28;91899.97;2096709;28;20473;-80
2022/03/30 00:16:06;;;;;;;27.63;6.88;;;;;;;4.87;98.32;91899.13;2088081;28;20024;-80
2022/03/30 00:17:07;;;;;;;23.88;8.63;;;;;;;4.78;97.49;91899.69;2096365;28;20083;-80
2022/03/30 00:18:08;;;;;;;30.30;6.82;;;;;;;4.78;98.25;91897.81;2095421;28;20048;-79
2022/03/30 00:19:09;;;;;;;27.60;7.95;;;;;;;4.79;98.13;91901.19;2089233;28;20062;-79
2022/03/30 00:20:11;;;;;;;31.85;8.18;;;;;;;4.80;98.24;91894.75;2096087;28;20025;-79
2022/03/30 00:21:13;;;;;;;26.42;7.20;;;;;;;4.84;98.38;91889.38;2099450;28;20012;-80
2022/03/30 00:22:15;;;;;;;21.33;6.43;;;;;;;4.89;98.14;91896.84;2101067;28;20030;-81
2022/03/30 00:23:16;;;;;;;27.58;7.47;;;;;;;4.80;98.92;91894.75;2105921;28;20008;-80
2022/03/30 00:24:17;;;;;;;28.17;7.32;;;;;;;4.81;97.91;91893.56;2113531;28;20024;-80
2022/03/30 00:25:18;;;;;;;36.72;7.60;;;;;;;4.83;99.84;91896.56;2105838;28;20028;-80
2022/03/30 00:26:20;;;;;;;27.25;6.60;;;;;;;4.80;99.55;91892.09;2089675;28;20075;-80
2022/03/30 00:27:21;;;;;;;26.15;7.85;;;;;;;4.87;99.20;91896.47;2097924;28;20434;-80
2022/03/30 00:28:23;;;;;;;25.55;8.10;;;;;;;4.87;99.44;91897.22;2097881;28;20457;-80
2022/03/30 00:29:24;;;;;;;31.65;8.23;;;;;;;4.90;98.78;91896.41;2105309;28;20020;-81
2022/03/30 00:30:25;;;;;;;26.23;7.28;;;;;;;4.93;98.55;91894.88;2097691;28;20016;-80
2022/03/30 00:31:26;;;;;;;27.40;7.30;;;;;;;4.95;99.20;91900.47;2105705;28;20183;-80
2022/03/30 00:32:27;;;;;;;29.33;7.28;;;;;;;4.96;97.79;91894.78;2097027;28;20032;-81
2022/03/30 00:33:28;;;;;;;33.72;7.60;;;;;;;4.97;96.93;91893.63;2104776;28;20047;-79
2022/03/30 00:34:29;;;;;;;25.83;7.10;;;;;;;4.99;98.04;91895.84;2097420;28;20027;-80
2022/03/30 00:35:30;;;;;;;27.98;7.20;;;;;;;5.00;98.13;91892.03;2097792;28;20123;-79
2022/03/30 00:36:31;;;;;;;27.88;7.07;;;;;;;5.00;98.72;91892.03;2097001;28;20024;-80
2022/03/30 00:37:32;;;;;;;28.98;6.80;;;;;;;5.01;98.00;91885.63;2089041;28;20024;-80
2022/03/30 00:38:33;;;;;;;25.98;7.78;;;;;;;5.02;98.10;91890.50;2089240;28;20036;-81
2022/03/30 00:39:35;;;;;;;29.52;7.57;;;;;;;4.99;99.37;91891.31;2088981;28;20017;-80
2022/03/30 00:40:36;;;;;;;25.90;7.18;;;;;;;5.04;98.49;91895.38;2097554;28;20164;-79
2022/03/30 00:41:37;;;;;;;24.17;6.40;;;;;;;5.10;98.02;91887.72;2097341;28;20485;-80
2022/03/30 00:42:38;;;;;;;25.65;7.38;;;;;;;5.19;97.14;91887.88;2088910;28;20501;-79
2022/03/30 00:43:39;;;;;;;24.17;6.22;;;;;;;5.09;97.15;91886.19;2105213;28;20028;-80
2022/03/30 00:44:40;;;;;;;25.35;6.47;;;;;;;5.02;98.10;91887.84;2105498;28;20019;-81
2022/03/30 00:45:41;;;;;;;25.58;6.22;;;;;;;4.98;98.48;91881.88;2097489;28;20097;-81
2022/03/30 00:46:43;;;;;;;28.05;6.82;;;;;;;4.95;98.44;91882.69;2089192;28;20516;-79
2022/03/30 00:47:45;;;;;;;29.58;7.20;;;;;;;4.98;98.70;91881.13;2089745;28;20013;-79
2022/03/30 00:48:46;;;;;;;30.63;7.82;;;;;;;5.04;98.67;91882.13;2097799;28;20063;-79
2022/03/30 00:49:48;;;;;;;27.60;6.75;;;;;;;4.99;99.17;91879.97;2097479;28;20020;-80
2022/03/30 00:50:48;;;;;;;33.03;7.65;;;;;;;4.93;100.00;91882.38;2098888;28;20111;-80
2022/03/30 00:51:49;;;;;;;33.28;8.85;;;;;;;4.97;99.57;91884.94;2096342;28;20035;-79
2022/03/30 00:52:55;;;;;;;27.40;7.22;;;;;;;4.97;99.95;91880.38;2096684;28;20420;-79
2022/03/30 00:53:56;;;;;;;22.00;8.35;;;;;;;4.92;100.00;91886.19;2088666;28;20028;-79
2022/03/30 00:54:57;;;;;;;31.55;7.30;;;;;;;5.01;99.64;91882.97;2090882;28;20037;-80
2022/03/30 00:55:59;;;;;;;29.98;8.02;;;;;;;4.90;100.00;91880.53;2089583;28;20068;-79
2022/03/30 00:57:09;;;;;;;40.97;8.75;;;;;;;4.88;100.00;91877.56;2096213;28;20107;-80
2022/03/30 00:58:10;;;;;;;30.88;6.85;;;;;;;4.90;100.00;91883.19;2104851;28;20789;-80
2022/03/30 00:59:11;;;;;;;28.25;7.95;;;;;;;4.94;100.00;91880.47;2105638;28;20153;-80
2022/03/30 01:00:15;;;;;;;32.30;8.38;;;;;;;5.04;99.95;91876.84;2104302;28;20505;-80
2022/03/30 01:01:16;;;;;;;26.42;7.40;;;;;;;5.04;100.00;91869.63;2099238;28;20024;-80
2022/03/30 01:02:18;;;;;;;29.40;6.75;;;;;;;5.08;99.33;91884.72;2105204;28;20064;-80
2022/03/30 01:03:19;;;;;;;24.85;7.30;;;;;;;5.04;99.66;91879.47;2105454;28;20020;-81
2022/03/30 01:04:20;;;;;;;40.25;7.43;;;;;;;5.09;99.23;91871.03;2096945;28;20103;-80
2022/03/30 01:05:21;;;;;;;26.67;7.90;;;;;;;5.13;100.00;91881.56;2089914;28;20017;-79
2022/03/30 01:06:22;;;;;;;26.05;7.07;;;;;;;5.04;100.00;91874.19;2096738;28;20078;-80
2022/03/30 01:07:25;;;;;;;25.55;7.18;;;;;;;5.02;100.00;91866.66;2097284;28;20062;-80
2022/03/30 01:08:26;;;;;;;31.95;7.25;;;;;;;4.99;100.00;91866.72;2097066;28;20025;-80
2022/03/30 01:09:27;;;;;;;26.45;6.55;;;;;;;4.99;100.00;91872.78;2097306;28;20025;-79
2022/03/30 01:10:28;;;;;;;25.00;7.13;;;;;;;5.00;100.00;91874.28;2096989;28;20027;-79
2022/03/30 01:11:29;;;;;;;26.02;6.75;;;;;;;5.09;99.36;91871.03;2087897;28;20047;-81
2022/03/30 01:12:32;;;;;;;26.20;6.88;;;;;;;5.06;100.00;91869.25;2088374;28;20025;-80
2022/03/30 01:13:33;;;;;;;20.50;6.05;;;;;;;5.09;100.00;91873.69;2088584;28;20767;-79
2022/03/30 01:14:35;;;;;;;29.00;8.18;;;;;;;5.06;99.61;91869.25;2088747;28;20033;-80
2022/03/30 01:15:36;;;;;;;28.95;6.75;;;;;;;5.15;100.00;91868.69;2088676;28;20024;-80
2022/03/30 01:16:39;;;;;;;23.75;6.32;;;;;;;5.09;100.00;91865.75;2086461;28;20084;-80
2022/03/30 01:17:41;;;;;;;29.80;7.10;;;;;;;5.02;100.00;91876.50;2081751;28;20021;-79
2022/03/30 01:18:42;;;;;;;28.70;6.68;;;;;;;5.18;100.00;91867.84;2085709;28;20112;-80
2022/03/30 01:19:43;;;;;;;34.25;7.75;;;;;;;5.23;100.00;91859.41;2086736;28;20028;-79
2022/03/30 01:20:49;;;;;;;28.15;6.63;;;;;;;5.28;98.95;91854.38;2093341;28;20017;-80
2022/03/30 01:21:50;;;;;;;26.60;6.90;;;;;;;5.29;98.49;91860.41;2097549;28;20016;-80
2022/03/30 01:22:51;;;;;;;24.10;7.90;;;;;;;5.40;98.55;91855.63;2105644;28;20038;-80
2022/03/30 01:23:52;;;;;;;25.40;7.03;;;;;;;5.42;98.11;91855.94;2107043;28;20020;-80
2022/03/30 01:24:53;;;;;;;23.92;8.18;;;;;;;5.30;98.55;91851.28;2105587;28;20027;-80
2022/03/30 01:25:54;;;;;;;29.02;7.43;;;;;;;5.24;98.03;91845.75;2088727;28;20049;-79
2022/03/30 01:26:55;;;;;;;28.48;7.18;;;;;;;5.25;99.43;91852.53;2089781;28;20056;-81
2022/03/30 01:27:57;;;;;;;25.95;7.03;;;;;;;5.26;98.56;91845.34;2079477;28;20029;-80
2022/03/30 01:28:58;;;;;;;27.90;7.15;;;;;;;5.30;99.31;91846.75;2087655;28;20060;-80
2022/03/30 01:33:03;;;;;;;20.27;6.38;;;;;;;5.42;98.95;91842.69;2104036;28;20061;-81
2022/03/30 01:34:04;;;;;;;32.53;6.47;;;;;;;5.39;97.50;91838.22;2106790;28;20031;-81
2022/03/30 01:35:07;;;;;;;24.13;6.68;;;;;;;5.55;97.71;91838.22;2088599;28;20027;-81
2022/03/30 01:36:08;;;;;;;28.58;6.65;;;;;;;5.52;96.87;91833.00;2078142;28;20025;-81
2022/03/30 01:37:11;;;;;;;18.08;5.80;;;;;;;5.62;96.51;91824.06;2088753;28;20470;-80
2022/03/30 01:38:11;;;;;;;20.70;7.47;;;;;;;5.52;97.00;91825.06;2102308;28;20024;-81
2022/03/30 01:39:12;;;;;;;28.52;7.07;;;;;;;5.55;97.08;91826.88;2092274;28;20047;-79
2022/03/30 01:40:13;;;;;;;22.63;6.55;;;;;;;5.70;96.96;91828.03;2087264;28;21011;-80
2022/03/30 01:41:14;;;;;;;26.45;6.53;;;;;;;5.60;96.57;91823.72;2080917;28;20021;-80
2022/03/30 01:42:16;;;;;;;20.35;6.10;;;;;;;5.58;97.29;91823.41;2088759;28;20032;-79
2022/03/30 01:43:17;;;;;;;26.90;6.90;;;;;;;5.50;96.11;91820.19;2088999;28;20036;-80
2022/03/30 01:44:18;;;;;;;24.05;7.80;;;;;;;5.54;97.97;91814.78;2097058;28;20031;-79
2022/03/30 01:45:19;;;;;;;20.35;6.70;;;;;;;5.50;98.52;91819.44;2096680;28;20017;-79
2022/03/30 01:46:20;;;;;;;24.48;7.88;;;;;;;5.48;98.46;91805.84;2088752;28;20704;-80
2022/03/30 01:47:22;;;;;;;31.85;6.47;;;;;;;5.49;97.65;91816.03;2089896;28;20028;-80
2022/03/30 01:48:23;;;;;;;22.02;6.22;;;;;;;5.53;97.19;91811.41;2080269;28;20352;-80
2022/03/30 01:49:24;;;;;;;24.42;6.82;;;;;;;5.69;96.92;91807.97;2088871;28;20021;-79
2022/03/30 01:50:27;;;;;;;34.58;7.65;;;;;;;5.58;96.66;91812.81;2105289;28;20020;-80
2022/03/30 01:51:28;;;;;;;27.95;6.60;;;;;;;5.44;98.08;91813.88;2104962;28;20024;-79
2022/03/30 01:52:29;;;;;;;28.52;7.07;;;;;;;5.48;99.03;91808.50;2096290;28;20122;-79
2022/03/30 01:53:30;;;;;;;24.90;6.82;;;;;;;5.52;98.36;91807.25;2097023;28;20570;-79
2022/03/30 01:54:39;;;;;;;34.85;7.38;;;;;;;5.52;97.92;91809.16;2096404;28;20116;-79
2022/03/30 01:55:40;;;;;;;16.92;6.45;;;;;;;5.54;98.05;91804.94;2102409;28;20028;-79
2022/03/30 01:56:41;;;;;;;27.17;7.00;;;;;;;5.58;97.95;91804.84;2087418;28;20040;-80
2022/03/30 01:57:43;;;;;;;20.30;7.47;;;;;;;5.53;97.64;91808.75;2099316;28;20034;-81
2022/03/30 01:58:44;;;;;;;26.77;7.05;;;;;;;5.60;97.58;91807.81;2098621;28;20028;-80
2022/03/30 01:59:53;;;;;;;26.85;7.90;;;;;;;5.52;97.05;91804.59;2097455;28;20028;-80
2022/03/30 02:00:54;;;;;;;20.88;6.57;;;;;;;5.51;97.15;91799.72;2098633;28;20085;-81
2022/03/30 02:01:55;;;;;;;27.98;7.55;;;;;;;5.49;97.53;91800.16;2088593;28;20071;-80
2022/03/30 02:02:56;;;;;;;27.13;7.28;;;;;;;5.59;97.97;91792.34;2089077;28;20027;-81
2022/03/30 02:03:57;;;;;;;28.65;6.88;;;;;;;5.54;97.40;91796.25;2089122;28;20017;-81
2022/03/30 02:04:58;;;;;;;23.90;6.70;;;;;;;5.56;96.88;91796.56;2081927;28;20033;-80
2022/03/30 02:05:59;;;;;;;29.30;8.32;;;;;;;5.49;96.82;91794.09;2080946;28;20530;-80
2022/03/30 02:07:02;;;;;;;27.38;7.47;;;;;;;5.62;97.96;91796.78;2086975;28;20025;-80
2022/03/30 02:08:03;;;;;;;32.00;7.32;;;;;;;5.62;96.31;91796.78;2083367;28;20036;-80
2022/03/30 02:09:06;;;;;;;24.15;7.32;;;;;;;5.62;96.75;91791.50;2081331;28;20352;-80
2022/03/30 02:10:08;;;;;;;24.05;7.18;;;;;;;5.62;96.65;91792.28;2080600;28;20025;-81
2022/03/30 02:11:09;;;;;;;23.30;6.68;;;;;;;5.53;97.74;91792.09;2097623;28;20070;-80
2022/03/30 02:12:10;;;;;;;31.15;7.65;;;;;;;5.55;97.64;91792.44;2102590;28;20047;-80
2022/03/30 02:13:11;;;;;;;19.98;6.20;;;;;;;5.50;98.00;91782.34;2098645;28;20025;-80
2022/03/30 02:14:12;;;;;;;25.67;7.57;;;;;;;5.52;98.59;91780.00;2096890;28;20017;-82
2022/03/30 02:15:13;;;;;;;28.23;6.75;;;;;;;5.51;99.46;91783.81;2104699;28;20423;-80
2022/03/30 02:16:15;;;;;;;28.42;6.95;;;;;;;5.60;98.68;91783.97;2112080;28;20028;-80
2022/03/30 02:17:18;;;;;;;21.05;6.15;;;;;;;5.63;98.30;91788.44;2096851;28;20028;-80
2022/03/30 02:18:20;;;;;;;29.15;7.40;;;;;;;5.63;98.36;91780.50;2089096;28;20082;-81
2022/03/30 02:19:21;;;;;;;19.35;7.25;;;;;;;5.63;98.77;91785.06;2088793;28;20490;-80
2022/03/30 02:20:24;;;;;;;28.95;7.13;;;;;;;5.64;98.18;91779.34;2088527;28;20017;-80
2022/03/30 02:21:25;;;;;;;18.80;6.50;;;;;;;5.66;99.40;91782.28;2088709;28;20029;-80
2022/03/30 02:22:26;;;;;;;25.30;7.65;;;;;;;5.68;99.47;91781.91;2106963;28;20046;-79
2022/03/30 02:23:27;;;;;;;28.40;7.82;;;;;;;5.64;100.00;91787.28;2101203;28;20058;-81
2022/03/30 02:24:28;;;;;;;20.17;6.55;;;;;;;5.67;100.00;91777.75;2091415;28;20040;-81
2022/03/30 02:25:29;;;;;;;19.33;5.78;;;;;;;5.71;99.65;91783.72;2096761;28;20024;-80
2022/03/30 02:26:30;;;;;;;23.88;7.43;;;;;;;5.65;100.00;91786.13;2105184;28;20028;-82
2022/03/30 02:27:32;;;;;;;25.98;7.20;;;;;;;5.64;100.00;91781.97;2104101;28;20012;-81
2022/03/30 02:28:33;;;;;;;22.92;7.00;;;;;;;5.65;100.00;91783.47;2105145;28;20044;-81
2022/03/30 02:29:35;;;;;;;28.67;7.50;;;;;;;5.63;100.00;91783.16;2096521;28;20052;-81
2022/03/30 02:30:36;;;;;;;24.35;6.90;;;;;;;5.71;100.00;91778.41;2096443;28;20021;-80
2022/03/30 02:31:37;;;;;;;22.27;6.55;;;;;;;5.71;100.00;91781.81;2096663;28;20032;-80
2022/03/30 02:32:38;;;;;;;26.95;6.93;;;;;;;5.67;100.00;91775.13;2096246;28;20159;-80
2022/03/30 02:33:39;;;;;;;22.88;7.97;;;;;;;5.63;100.00;91779.75;2096715;28;20032;-80
2022/03/30 02:34:41;;;;;;;20.10;6.15;;;;;;;5.64;100.00;91778.59;2103808;28;20020;-80
2022/03/30 02:35:48;;;;;;;30.67;7.53;;;;;;;5.67;100.00;91775.13;2104905;28;20028;-80
2022/03/30 02:36:56;;;;;;;25.00;7.00;;;;;;;5.69;100.00;91781.47;2097248;28;20024;-80
2022/03/30 02:38:02;;;;;;;24.17;7.20;;;;;;;5.76;100.00;91778.66;2100321;28;20091;-79
2022/03/30 02:39:04;;;;;;;29.30;7.10;;;;;;;5.79;100.00;91777.81;2096547;28;20027;-80
2022/03/30 02:40:05;;;;;;;25.88;7.30;;;;;;;5.71;100.00;91771.22;2096835;28;20039;-80
2022/03/30 02:41:06;;;;;;;21.17;6.60;;;;;;;5.77;100.00;91774.09;2088535;28;20023;-80
2022/03/30 02:42:08;;;;;;;17.05;7.85;;;;;;;5.79;100.00;91771.75;2105280;28;20530;-81
2022/03/30 02:43:10;;;;;;;21.88;6.50;;;;;;;5.85;100.00;91772.75;2105043;28;20034;-80
2022/03/30 02:44:12;;;;;;;22.63;7.43;;;;;;;5.91;100.00;91767.66;2090301;28;20017;-80
2022/03/30 02:45:14;;;;;;;29.65;7.65;;;;;;;5.97;100.00;91764.13;2095072;28;20054;-80
2022/03/30 02:46:15;;;;;;;22.80;7.65;;;;;;;6.00;100.00;91768.56;2095622;28;20163;-80
2022/03/30 02:48:17;;;;;;;23.55;7.10;;;;;;;6.07;100.00;91766.91;2086968;28;20062;-80
2022/03/30 02:48:37;;;;;;;20.85;6.60;;;;;;;6.01;100.00;91767.44;2099106;28;20497;-79
2022/03/30 02:49:38;;;;;;;24.25;7.47;;;;;;;5.98;100.00;91762.97;2095750;28;20126;-81
2022/03/30 02:50:39;;;;;;;23.20;7.20;;;;;;;5.95;100.00;91763.78;2096585;28;20548;-81
2022/03/30 02:51:42;;;;;;;27.40;7.18;;;;;;;5.90;100.00;91772.22;2086032;28;20036;-80
2022/03/30 02:52:43;;;;;;;21.17;6.88;;;;;;;5.84;100.00;91765.97;2088520;28;20539;-81
2022/03/30 02:53:45;;;;;;;21.50;6.60;;;;;;;5.92;100.00;91761.97;2104667;28;20729;-81
2022/03/30 02:54:46;;;;;;;27.05;8.32;;;;;;;5.83;100.00;91759.16;2096446;28;20723;-80
2022/03/30 02:55:47;;;;;;;23.52;7.60;;;;;;;5.87;100.00;91762.44;2088344;28;20021;-82
2022/03/30 02:56:48;;;;;;;33.05;7.65;;;;;;;5.93;100.00;91763.47;2096515;28;20020;-81
2022/03/30 02:57:49;;;;;;;25.48;6.90;;;;;;;5.81;100.00;91766.78;2104213;28;20024;-80
2022/03/30 02:58:51;;;;;;;19.20;6.45;;;;;;;5.84;100.00;91765.97;2096897;28;20135;-82
2022/03/30 02:59:52;;;;;;;20.05;6.85;;;;;;;5.86;100.00;91760.97;2096969;28;20012;-80
2022/03/30 03:00:56;;;;;;;31.95;7.88;;;;;;;5.84;100.00;91765.19;2096363;28;20024;-81
2022/03/30 03:01:59;;;;;;;23.10;7.15;;;;;;;5.82;100.00;91765.63;2096537;28;20024;-80
2022/03/30 03:03:02;;;;;;;18.70;7.10;;;;;;;5.88;100.00;91769.25;2096475;28;20036;-81
2022/03/30 03:04:03;;;;;;;19.77;7.00;;;;;;;5.95;100.00;91763.78;2095973;28;20016;-81
2022/03/30 03:05:05;;;;;;;22.40;6.75;;;;;;;5.87;100.00;91772.31;2097116;28;20016;-79
2022/03/30 03:06:06;;;;;;;23.27;7.38;;;;;;;5.79;100.00;91761.91;2096562;28;20062;-81
2022/03/30 03:07:07;;;;;;;25.60;7.00;;;;;;;5.90;100.00;91758.97;2096834;28;20027;-80
2022/03/30 03:08:11;;;;;;;24.35;7.32;;;;;;;5.88;100.00;91768.50;2105234;28;20066;-81
2022/03/30 03:09:12;;;;;;;21.30;7.20;;;;;;;5.75;100.00;91771.88;2096939;28;20036;-81
2022/03/30 03:10:13;;;;;;;27.98;7.50;;;;;;;5.71;100.00;91755.31;2088494;28;20024;-81
2022/03/30 03:11:14;;;;;;;25.23;7.18;;;;;;;5.67;100.00;91767.16;2096657;28;20152;-81
2022/03/30 03:12:29;;;;;;;25.45;8.10;;;;;;;5.64;100.00;91763.44;2100130;28;20061;-81
2022/03/30 03:13:30;;;;;;;34.85;8.07;;;;;;;5.64;100.00;91768.72;2106459;28;20055;-80
2022/03/30 03:14:31;;;;;;;26.10;7.35;;;;;;;5.66;100.00;91769.03;2105059;28;20032;-81
2022/03/30 03:15:34;;;;;;;20.73;6.97;;;;;;;5.61;100.00;91768.81;2088907;28;20076;-81
2022/03/30 03:16:35;;;;;;;22.10;6.15;;;;;;;5.74;100.00;91772.25;2090010;28;20020;-81
2022/03/30 03:17:36;;;;;;;21.08;7.80;;;;;;;5.77;100.00;91774.09;2097076;28;20397;-80
2022/03/30 03:18:37;;;;;;;25.55;7.38;;;;;;;5.71;100.00;91771.22;2106435;28;20035;-81
2022/03/30 03:19:38;;;;;;;27.67;7.90;;;;;;;5.69;100.00;91770.13;2106221;28;20028;-81
2022/03/30 03:20:44;;;;;;;22.40;6.90;;;;;;;5.65;100.00;91766.81;2096059;28;20420;-82
2022/03/30 03:21:45;;;;;;;24.20;7.28;;;;;;;5.67;100.00;91761.84;2105654;28;20032;-82
2022/03/30 03:22:46;;;;;;;21.40;7.00;;;;;;;5.71;100.00;91752.66;2098876;28;20050;-80
2022/03/30 03:23:47;;;;;;;21.40;6.85;;;;;;;5.66;100.00;91750.50;2097051;28;20447;-80
2022/03/30 03:24:48;;;;;;;25.08;8.98;;;;;;;5.65;100.00;91761.50;2107174;28;20158;-81
2022/03/30 03:25:49;;;;;;;31.48;8.27;;;;;;;5.67;100.00;91745.94;2091166;28;20017;-80
2022/03/30 03:26:51;;;;;;;32.38;9.45;;;;;;;5.63;100.00;91748.69;2097968;28;20074;-80
2022/03/30 03:27:52;;;;;;;24.25;7.25;;;;;;;5.62;100.00;91733.94;2105989;28;20111;-81
2022/03/30 03:28:53;;;;;;;28.65;7.03;;;;;;;5.62;100.00;91739.25;2098229;28;20023;-81
2022/03/30 03:29:55;;;;;;;22.73;7.88;;;;;;;5.61;100.00;91729.78;2106511;28;20022;-81
2022/03/30 03:30:56;;;;;;;23.13;8.23;;;;;;;5.61;100.00;91731.69;2114548;28;20472;-81
2022/03/30 03:31:57;;;;;;;24.75;9.02;;;;;;;5.64;100.00;91728.22;2097519;28;20035;-81
2022/03/30 03:33:12;;;;;;;25.35;7.88;;;;;;;5.66;100.00;91723.97;2106586;28;20115;-81
2022/03/30 03:34:13;;;;;;;29.17;7.47;;;;;;;5.63;100.00;91718.78;2108476;28;20058;-81
2022/03/30 03:35:14;;;;;;;21.42;8.07;;;;;;;5.62;100.00;91710.09;2098029;28;20020;-82
2022/03/30 03:36:18;;;;;;;22.15;7.82;;;;;;;5.63;100.00;91714.22;2087520;28;20501;-81
2022/03/30 03:37:19;;;;;;;23.55;7.55;;;;;;;5.63;100.00;91716.88;2090465;28;20041;-80
2022/03/30 03:38:21;;;;;;;23.30;8.75;;;;;;;5.62;100.00;91717.28;2089774;28;20021;-80
2022/03/30 03:39:21;;;;;;;22.85;7.95;;;;;;;5.62;100.00;91706.69;2089730;28;20111;-81
2022/03/30 03:40:23;;;;;;;19.98;7.50;;;;;;;5.63;100.00;91705.53;2097279;28;20016;-81
2022/03/30 03:41:24;;;;;;;29.75;7.53;;;;;;;5.63;100.00;91705.53;2090430;28;20685;-82
2022/03/30 03:42:25;;;;;;;30.58;8.27;;;;;;;5.59;100.00;91700.31;2097850;28;20025;-82
2022/03/30 03:43:26;;;;;;;29.20;8.93;;;;;;;5.56;100.00;91699.25;2106178;28;20016;-80
2022/03/30 03:44:27;;;;;;;28.30;8.40;;;;;;;5.63;100.00;91700.25;2094132;28;20013;-80
2022/03/30 03:45:28;;;;;;;27.25;8.77;;;;;;;5.62;100.00;91702.16;2097954;28;20805;-81
2022/03/30 03:46:29;;;;;;;30.52;9.07;;;;;;;5.60;100.00;91706.38;2106275;28;20043;-82
2022/03/30 03:47:31;;;;;;;21.13;7.35;;;;;;;5.64;100.00;91699.06;2105375;27;20039;-81
2022/03/30 03:48:32;;;;;;;31.13;8.43;;;;;;;5.66;100.00;91699.38;2097200;28;20024;-82
2022/03/30 03:49:33;;;;;;;24.88;8.15;;;;;;;5.65;100.00;91695.25;2098241;28;20028;-80
2022/03/30 03:50:34;;;;;;;26.10;7.63;;;;;;;5.70;100.00;91700.78;2096874;28;20119;-81
2022/03/30 03:51:35;;;;;;;22.95;7.25;;;;;;;5.71;100.00;91704.19;2108054;27;20024;-82
2022/03/30 03:52:36;;;;;;;24.40;7.57;;;;;;;5.69;100.00;91698.56;2101821;28;20404;-82
2022/03/30 03:54:07;;;;;;;24.88;8.75;;;;;;;5.60;100.00;91695.75;2097867;28;20102;-81
2022/03/30 03:55:09;;;;;;;26.73;7.25;;;;;;;5.59;100.00;91695.03;2100584;28;20032;-82
2022/03/30 03:56:10;;;;;;;14.77;6.75;;;;;;;5.61;100.00;91695.34;2091311;28;20083;-80
2022/03/30 03:57:11;;;;;;;26.48;7.07;;;;;;;5.68;100.00;91697.06;2091434;28;20021;-82
2022/03/30 03:58:12;;;;;;;23.13;6.78;;;;;;;5.78;100.00;91698.69;2097752;28;20533;-81
2022/03/30 03:59:13;;;;;;;27.90;7.70;;;;;;;5.76;100.00;91699.13;2098352;28;20521;-81
2022/03/30 04:00:15;;;;;;;25.35;8.57;;;;;;;5.73;100.00;91693.91;2105711;28;20114;-81
2022/03/30 04:01:16;;;;;;;21.83;7.05;;;;;;;5.64;100.00;91694.50;2104174;28;20012;-80
2022/03/30 04:02:17;;;;;;;25.52;8.00;;;;;;;5.57;100.00;91692.03;2103350;28;20031;-81
2022/03/30 04:03:18;;;;;;;31.55;8.00;;;;;;;5.55;100.00;91691.72;2095177;28;20029;-80
2022/03/30 04:04:19;;;;;;;24.10;8.38;;;;;;;5.52;100.00;91695.19;2095197;28;20145;-82
2022/03/30 04:05:20;;;;;;;27.30;7.72;;;;;;;5.54;100.00;91698.19;2097395;28;20020;-80
2022/03/30 04:06:22;;;;;;;18.48;7.43;;;;;;;5.56;100.00;91693.19;2097727;28;20063;-80
2022/03/30 04:07:23;;;;;;;27.58;8.25;;;;;;;5.55;100.00;91689.81;2106177;28;20020;-82
2022/03/30 04:08:24;;;;;;;28.58;8.20;;;;;;;5.48;100.00;91692.63;2105947;28;20118;-83
2022/03/30 04:09:25;;;;;;;22.15;8.77;;;;;;;5.48;100.00;91694.53;2097762;28;20028;-80
2022/03/30 04:10:26;;;;;;;27.73;8.05;;;;;;;5.51;100.00;91689.16;2089978;28;20020;-80
2022/03/30 04:11:27;;;;;;;25.08;8.35;;;;;;;5.50;100.00;91695.63;2089983;28;20013;-80
2022/03/30 04:12:29;;;;;;;22.13;8.15;;;;;;;5.56;100.00;91688.66;2097101;28;20824;-81
2022/03/30 04:13:30;;;;;;;25.92;8.60;;;;;;;5.61;100.00;91691.94;2097821;28;20057;-81
2022/03/30 04:14:33;;;;;;;30.40;7.78;;;;;;;5.54;100.00;91690.97;2105783;28;20048;-81
2022/03/30 04:15:34;;;;;;;25.02;7.95;;;;;;;5.50;100.00;91692.97;2093838;28;20029;-80
2022/03/30 04:16:35;;;;;;;27.00;9.50;;;;;;;5.43;100.00;91687.84;2093064;28;20050;-79
2022/03/30 04:17:44;;;;;;;26.15;8.30;;;;;;;5.46;100.00;91694.97;2088257;28;20713;-80
2022/03/30 04:18:45;;;;;;;21.33;8.57;;;;;;;5.50;100.00;91692.22;2083342;28;20035;-80
2022/03/30 04:19:46;;;;;;;24.67;8.85;;;;;;;5.52;100.00;91695.94;2083712;28;20040;-80
2022/03/30 04:20:47;;;;;;;30.27;8.48;;;;;;;5.53;100.00;91686.84;2090260;28;20027;-80
2022/03/30 04:21:48;;;;;;;25.33;7.65;;;;;;;5.63;100.00;91689.63;2097319;28;20546;-80
2022/03/30 04:22:49;;;;;;;31.02;8.25;;;;;;;5.56;100.00;91691.28;2114104;28;20027;-81
2022/03/30 04:23:50;;;;;;;21.60;8.15;;;;;;;5.52;100.00;91695.94;2090780;28;20032;-81
2022/03/30 04:24:51;;;;;;;20.60;7.85;;;;;;;5.46;100.00;91684.38;2092929;28;20104;-80
2022/03/30 04:25:52;;;;;;;31.10;8.52;;;;;;;5.53;100.00;91686.06;2093187;28;20027;-81
2022/03/30 04:26:53;;;;;;;25.55;8.52;;;;;;;5.45;100.00;91690.84;2093124;28;20074;-80
2022/03/30 04:27:54;;;;;;;25.63;8.27;;;;;;;5.48;100.00;91686.59;2094405;28;20024;-81
2022/03/30 04:28:55;;;;;;;24.35;8.50;;;;;;;5.44;100.00;91691.25;2099514;28;20962;-80
2022/03/30 04:29:56;;;;;;;23.67;8.40;;;;;;;5.42;100.00;91689.00;2110012;27;20028;-81
2022/03/30 04:31:02;;;;;;;23.02;7.47;;;;;;;5.44;100.00;91685.94;2093427;28;20117;-81
2022/03/30 04:32:03;;;;;;;30.27;8.82;;;;;;;5.38;100.00;91683.06;2094897;28;20028;-81
2022/03/30 04:33:04;;;;;;;27.63;8.25;;;;;;;5.34;100.00;91679.75;2086839;28;20054;-80
2022/03/30 04:34:05;;;;;;;23.05;7.80;;;;;;;5.40;100.00;91677.34;2094828;28;20021;-80
2022/03/30 04:35:07;;;;;;;28.02;7.75;;;;;;;5.42;100.00;91680.31;2087062;28;20032;-80
2022/03/30 04:36:09;;;;;;;31.13;7.68;;;;;;;5.42;100.00;91673.13;2078959;28;20025;-80
2022/03/30 04:37:10;;;;;;;33.15;8.40;;;;;;;5.49;100.00;91669.56;2096008;28;20058;-81
2022/03/30 04:38:11;;;;;;;25.65;7.90;;;;;;;5.63;100.00;91679.03;2104240;28;20461;-81
2022/03/30 04:39:12;;;;;;;24.88;8.00;;;;;;;5.59;100.00;91673.81;2086523;28;20024;-81
2022/03/30 04:40:13;;;;;;;24.30;8.98;;;;;;;5.54;100.00;91675.06;2087706;28;20028;-83
2022/03/30 04:41:14;;;;;;;25.55;8.95;;;;;;;5.44;100.00;91673.44;2089672;28;20013;-81
2022/03/30 04:42:15;;;;;;;21.30;8.32;;;;;;;5.43;100.00;91661.34;2097757;28;20031;-81
2022/03/30 04:43:16;;;;;;;19.13;7.93;;;;;;;5.39;100.00;91671.28;2104236;28;20020;-79
2022/03/30 04:44:18;;;;;;;22.70;9.70;;;;;;;5.39;100.00;91666.00;2096464;28;20060;-80
2022/03/30 04:45:22;;;;;;;31.63;10.65;;;;;;;5.39;100.00;91670.56;2096314;28;20028;-82
2022/03/30 04:46:22;;;;;;;30.27;12.35;;;;;;;5.43;100.00;91665.91;2097985;28;20020;-80
2022/03/30 04:47:24;;;;;;;28.17;11.90;;;;;;;5.40;100.00;91659.56;2091634;28;20068;-80
2022/03/30 04:48:24;;;;;;;30.08;11.45;;;;;;;5.54;100.00;91661.81;2087865;28;20032;-78
2022/03/30 04:49:25;;;;;;;28.80;8.98;;;;;;;5.46;100.00;91663.16;2089217;28;20513;-79
2022/03/30 04:50:27;;;;;;;34.67;9.52;;;;;;;5.42;100.00;91662.53;2096893;28;20040;-79
2022/03/30 04:51:29;;;;;;;26.10;7.57;;;;;;;5.46;100.00;91662.44;2096301;28;20028;-79
2022/03/30 04:52:32;;;;;;;26.95;7.82;;;;;;;5.53;100.00;91654.28;2097099;28;20113;-81